Time;durP1;ratioP1;P1;durP2;ratioP2;P2;SDS_P1;SDS_P2;PMS_P1;PMS_P2;Temp;Humidity;BMP_temperature;BMP_pressure;BME280_temperature;BME280_humidity;BME280_pressure;Samples;Min_cycle;Max_cycle;Signal;HPM_P1;HPM_P2
2022/04/28 00:01:00;;;;;;;16.40;2.85;;;8.10;99.90;;;;;;4970251;28;20046;-78
2022/04/28 00:03:26;;;;;;;11.10;2.30;;;8.10;99.90;;;;;;4982791;28;20042;-78
2022/04/28 00:05:52;;;;;;;11.18;2.35;;;8.20;99.90;;;;;;4968597;28;20038;-78
2022/04/28 00:08:18;;;;;;;7.35;2.15;;;8.10;99.90;;;;;;4970168;28;20048;-78
2022/04/28 00:10:44;;;;;;;11.65;2.72;;;8.10;99.90;;;;;;4982262;28;20089;-78
2022/04/28 00:13:13;;;;;;;12.00;2.83;;;8.10;99.90;;;;;;4999962;28;20117;-78
2022/04/28 00:15:38;;;;;;;15.98;3.03;;;8.10;99.90;;;;;;4982527;28;20493;-78
2022/04/28 00:18:04;;;;;;;9.52;2.38;;;8.10;99.90;;;;;;4980953;28;20045;-78
2022/04/28 00:20:30;;;;;;;13.45;2.47;;;8.10;99.90;;;;;;4969298;28;20509;-79
2022/04/28 00:22:56;;;;;;;9.15;2.55;;;8.10;99.90;;;;;;4968564;28;20185;-78
2022/04/28 00:25:23;;;;;;;9.95;2.67;;;8.00;99.90;;;;;;4949403;28;20395;-78
2022/04/28 00:27:50;;;;;;;14.93;3.40;;;8.10;99.90;;;;;;4996798;28;20041;-78
2022/04/28 00:30:16;;;;;;;10.18;3.00;;;8.10;99.90;;;;;;4991408;28;20225;-78
2022/04/28 00:32:41;;;;;;;17.55;3.38;;;8.10;99.90;;;;;;4983018;28;20141;-77
2022/04/28 00:35:08;;;;;;;14.65;3.05;;;8.10;99.90;;;;;;4982167;28;20149;-77
2022/04/28 00:37:34;;;;;;;9.05;2.50;;;8.00;99.90;;;;;;4987624;28;20041;-77
2022/04/28 00:40:01;;;;;;;10.93;2.88;;;8.00;99.90;;;;;;5002194;28;21578;-78
2022/04/28 00:42:29;;;;;;;10.23;2.75;;;8.10;99.90;;;;;;4969311;28;20030;-78
2022/04/28 00:44:54;;;;;;;12.98;2.58;;;8.20;99.90;;;;;;4966372;28;20054;-78
2022/04/28 00:47:22;;;;;;;11.48;2.97;;;8.00;99.90;;;;;;4985386;28;20061;-78
2022/04/28 00:52:33;;;;;;;12.98;2.97;;;8.00;99.90;;;;;;4982620;28;20133;-77
2022/04/28 00:54:59;;;;;;;12.93;3.10;;;8.10;99.90;;;;;;4984155;28;20407;-78
2022/04/28 00:57:26;;;;;;;14.48;3.00;;;8.00;99.90;;;;;;4969528;28;20116;-78
2022/04/28 00:59:52;;;;;;;11.55;3.13;;;8.00;99.90;;;;;;4969400;28;20123;-77
2022/04/28 01:02:19;;;;;;;10.85;3.17;;;8.00;99.90;;;;;;4985240;28;20190;-77
2022/04/28 01:04:46;;;;;;;10.70;3.17;;;8.10;99.90;;;;;;4983430;28;20050;-77
2022/04/28 01:07:15;;;;;;;12.25;3.40;;;8.10;99.90;;;;;;4964995;28;20192;-77
2022/04/28 01:09:41;;;;;;;16.13;3.30;;;8.00;99.90;;;;;;4981489;28;20037;-77
2022/04/28 01:12:14;;;;;;;15.80;3.45;;;8.10;99.90;;;;;;4966249;28;20046;-77
2022/04/28 01:14:44;;;;;;;14.70;3.78;;;8.10;99.90;;;;;;4975467;28;20148;-77
2022/04/28 01:17:10;;;;;;;10.95;2.90;;;8.10;99.90;;;;;;4964639;28;20050;-77
2022/04/28 01:19:36;;;;;;;12.10;3.28;;;8.00;99.90;;;;;;4984876;28;20187;-78
2022/04/28 01:22:04;;;;;;;9.77;3.05;;;8.00;99.90;;;;;;4968253;28;20093;-77
2022/04/28 01:24:31;;;;;;;13.13;3.30;;;8.00;99.90;;;;;;4981355;28;20042;-77
2022/04/28 01:26:59;;;;;;;12.13;3.35;;;8.00;99.90;;;;;;4980940;28;20057;-77
2022/04/28 01:29:25;;;;;;;17.00;3.70;;;8.30;99.90;;;;;;4985336;28;20045;-77
2022/04/28 01:31:51;;;;;;;12.40;3.60;;;8.10;99.90;;;;;;4989174;28;20069;-77
2022/04/28 01:34:16;;;;;;;13.77;3.30;;;8.00;99.90;;;;;;5001902;28;20041;-77
2022/04/28 01:36:45;;;;;;;10.88;3.00;;;8.00;99.90;;;;;;4980056;28;20034;-78
2022/04/28 01:39:11;;;;;;;9.52;2.67;;;8.00;99.90;;;;;;4986274;28;20045;-77
2022/04/28 01:41:37;;;;;;;9.90;2.50;;;8.00;99.90;;;;;;4983561;28;20511;-77
2022/04/28 01:44:03;;;;;;;5.38;2.33;;;8.10;99.90;;;;;;4988088;28;20092;-77
2022/04/28 01:46:29;;;;;;;12.50;2.60;;;8.10;99.90;;;;;;4971405;28;20052;-76
2022/04/28 01:48:55;;;;;;;9.43;2.30;;;8.10;99.90;;;;;;4975708;28;20115;-76
2022/04/28 01:57:00;;;;;;;14.18;3.40;;;8.00;99.90;;;;;;4941393;28;20083;-78
2022/04/28 01:59:26;;;;;;;11.23;3.67;;;8.10;99.90;;;;;;4929434;29;20075;-78
2022/04/28 02:01:51;;;;;;;15.48;3.67;;;8.00;99.90;;;;;;4927022;29;20130;-78
2022/04/28 02:04:17;;;;;;;16.90;4.03;;;8.00;99.90;;;;;;4925892;28;20055;-77
2022/04/28 02:06:45;;;;;;;16.13;3.35;;;8.00;99.90;;;;;;4944681;28;20032;-77
2022/04/28 02:09:11;;;;;;;11.05;3.33;;;8.00;99.90;;;;;;4930510;29;20107;-78
2022/04/28 02:11:37;;;;;;;11.77;3.15;;;8.00;99.90;;;;;;4910907;29;20055;-78
2022/04/28 02:14:02;;;;;;;12.73;3.63;;;8.00;99.90;;;;;;4919259;29;20050;-78
2022/04/28 02:16:28;;;;;;;15.73;4.18;;;8.00;99.90;;;;;;4935393;28;20482;-78
2022/04/28 02:18:54;;;;;;;12.70;3.40;;;8.00;99.90;;;;;;4931688;29;20063;-78
2022/04/28 02:21:19;;;;;;;7.68;3.13;;;8.10;99.90;;;;;;4912084;29;20043;-77
2022/04/28 02:23:45;;;;;;;12.15;3.78;;;8.00;99.90;;;;;;4928578;28;20143;-78
2022/04/28 02:26:10;;;;;;;7.95;3.00;;;8.10;99.90;;;;;;4932939;28;20047;-77
2022/04/28 02:28:36;;;;;;;10.30;3.45;;;8.00;99.90;;;;;;4911215;28;20095;-77
2022/04/28 02:31:02;;;;;;;13.38;3.45;;;8.10;99.90;;;;;;4957719;28;20133;-77
2022/04/28 02:33:28;;;;;;;17.08;3.65;;;8.10;99.90;;;;;;4948100;28;20101;-78
2022/04/28 02:35:53;;;;;;;16.45;3.58;;;8.10;99.90;;;;;;4985186;28;20055;-78
2022/04/28 02:38:19;;;;;;;11.18;3.33;;;8.10;99.90;;;;;;4962586;28;20120;-78
2022/04/28 02:40:45;;;;;;;11.60;3.60;;;8.10;99.90;;;;;;4947257;28;20047;-77
2022/04/28 02:43:10;;;;;;;14.73;3.75;;;8.10;99.90;;;;;;4961071;28;20130;-78
2022/04/28 02:45:36;;;;;;;17.52;3.83;;;8.10;99.90;;;;;;4946923;28;20117;-78
2022/04/28 02:48:02;;;;;;;11.43;3.40;;;8.10;99.90;;;;;;4963220;28;20362;-78
2022/04/28 02:50:27;;;;;;;11.32;3.40;;;8.10;99.90;;;;;;4966881;28;20069;-78
2022/04/28 02:52:53;;;;;;;15.43;3.53;;;8.10;99.90;;;;;;4957343;28;20596;-78
2022/04/28 02:55:20;;;;;;;16.42;3.90;;;8.10;99.90;;;;;;4985247;28;20034;-78
2022/04/28 02:57:45;;;;;;;13.02;3.22;;;8.10;99.90;;;;;;4983636;28;20144;-78
2022/04/28 03:00:11;;;;;;;14.13;3.50;;;8.10;99.90;;;;;;4968279;28;20224;-78
2022/04/28 03:02:37;;;;;;;15.88;3.53;;;8.10;99.90;;;;;;4982204;28;20047;-78
2022/04/28 03:05:04;;;;;;;14.88;3.58;;;8.10;99.90;;;;;;4987404;28;21707;-78
2022/04/28 03:12:59;;;;;;;17.83;3.97;;;8.10;99.90;;;;;;4976043;28;20059;-77
2022/04/28 03:15:25;;;;;;;13.55;3.50;;;8.10;99.90;;;;;;4981402;28;20657;-77
2022/04/28 03:17:51;;;;;;;12.48;3.72;;;8.10;99.90;;;;;;4978704;28;20037;-77
2022/04/28 03:20:17;;;;;;;12.20;3.67;;;8.10;99.90;;;;;;4984046;28;20405;-78
2022/04/28 03:22:43;;;;;;;16.08;4.00;;;8.10;99.90;;;;;;4976641;28;20485;-77
2022/04/28 03:25:10;;;;;;;15.57;4.07;;;8.10;99.90;;;;;;4982658;28;20062;-78
2022/04/28 03:27:36;;;;;;;13.15;3.60;;;8.10;99.90;;;;;;4964463;28;20508;-77
2022/04/28 03:30:03;;;;;;;10.05;4.10;;;8.00;99.90;;;;;;4990173;28;20177;-77
2022/04/28 03:32:28;;;;;;;16.58;4.00;;;8.10;99.90;;;;;;4971526;28;20030;-78
2022/04/28 03:34:54;;;;;;;9.80;4.20;;;8.10;99.90;;;;;;4991804;28;20049;-77
2022/04/28 03:37:20;;;;;;;13.13;4.05;;;8.10;99.90;;;;;;4995970;28;20041;-77
2022/04/28 03:39:45;;;;;;;11.20;3.65;;;8.50;99.90;;;;;;5009285;28;20155;-77
2022/04/28 03:42:11;;;;;;;10.90;3.88;;;8.10;99.90;;;;;;5011920;28;20041;-78
2022/04/28 03:44:37;;;;;;;10.95;4.15;;;8.10;99.90;;;;;;4986683;28;20512;-78
2022/04/28 03:47:06;;;;;;;15.77;3.80;;;8.00;99.90;;;;;;4993901;28;20117;-77
2022/04/28 03:49:32;;;;;;;14.10;4.10;;;8.00;99.90;;;;;;4969787;28;20101;-78
2022/04/28 03:51:57;;;;;;;12.68;4.07;;;8.00;99.90;;;;;;4968357;28;20050;-78
2022/04/28 03:54:23;;;;;;;10.77;4.00;;;8.00;99.90;;;;;;4986035;28;20049;-77
2022/04/28 03:56:49;;;;;;;13.82;4.05;;;8.10;99.90;;;;;;4961862;28;20070;-78
2022/04/28 03:59:14;;;;;;;9.38;3.97;;;8.20;99.90;;;;;;4952093;28;20085;-78
2022/04/28 04:01:40;;;;;;;9.93;4.47;;;8.10;99.90;;;;;;4970171;28;20427;-78
2022/04/28 04:04:06;;;;;;;14.80;4.07;;;8.10;99.90;;;;;;4971061;28;20031;-78
2022/04/28 04:06:31;;;;;;;13.20;4.65;;;8.10;99.90;;;;;;4963806;28;20097;-77
2022/04/28 04:08:57;;;;;;;17.38;4.30;;;8.10;99.90;;;;;;4949302;28;20039;-76
2022/04/28 04:11:23;;;;;;;17.27;3.90;;;8.00;99.90;;;;;;4957087;28;20049;-77
2022/04/28 04:13:49;;;;;;;7.97;3.50;;;8.00;99.90;;;;;;4956458;28;20065;-78
2022/04/28 04:16:15;;;;;;;11.85;4.00;;;8.10;99.90;;;;;;4952850;28;20038;-77
2022/04/28 04:18:41;;;;;;;14.15;4.40;;;8.00;99.90;;;;;;4958150;28;20046;-77
2022/04/28 04:21:07;;;;;;;15.63;4.35;;;7.90;99.90;;;;;;4974611;28;20042;-77
2022/04/28 04:23:33;;;;;;;9.38;4.10;;;8.00;99.90;;;;;;4961497;28;20127;-77
2022/04/28 04:26:01;;;;;;;17.17;5.13;;;8.00;99.90;;;;;;4938495;28;20058;-77
2022/04/28 04:28:27;;;;;;;20.25;4.93;;;8.00;99.90;;;;;;4965687;28;20041;-77
2022/04/28 04:33:36;;;;;;;13.23;5.10;;;8.10;99.90;;;;;;4957725;28;20819;-77
2022/04/28 04:36:03;;;;;;;11.90;4.63;;;8.10;99.90;;;;;;4981211;28;20077;-76
2022/04/28 04:38:29;;;;;;;12.00;4.40;;;8.20;99.90;;;;;;4959715;28;20034;-77
2022/04/28 04:40:54;;;;;;;11.73;4.88;;;8.20;99.90;;;;;;4974022;28;20104;-77
2022/04/28 04:43:20;;;;;;;16.58;4.43;;;8.20;99.90;;;;;;4952021;28;20043;-77
2022/04/28 04:45:45;;;;;;;13.63;4.55;;;8.30;99.90;;;;;;4962057;28;20026;-76
2022/04/28 04:48:12;;;;;;;13.55;4.20;;;8.30;99.90;;;;;;4963763;28;20294;-77
2022/04/28 04:50:39;;;;;;;13.50;3.90;;;8.50;99.90;;;;;;4938289;28;20035;-76
2022/04/28 04:53:05;;;;;;;14.32;4.28;;;8.30;99.90;;;;;;4959360;28;20066;-77
2022/04/28 04:55:36;;;;;;;13.90;4.18;;;8.40;99.90;;;;;;4971890;28;20037;-77
2022/04/28 04:58:03;;;;;;;14.07;3.85;;;8.30;99.90;;;;;;4952597;28;20099;-76
2022/04/28 05:00:29;;;;;;;16.17;4.18;;;8.40;99.90;;;;;;4980608;28;20030;-77
2022/04/28 05:02:54;;;;;;;17.63;4.30;;;8.20;99.90;;;;;;4985598;28;20433;-76
2022/04/28 05:05:20;;;;;;;12.57;3.92;;;8.30;99.90;;;;;;4978373;28;20394;-76
2022/04/28 05:07:46;;;;;;;12.68;3.90;;;8.20;99.90;;;;;;4991355;28;20067;-76
2022/04/28 05:10:11;;;;;;;17.63;3.90;;;8.20;99.90;;;;;;4961705;28;20061;-78
2022/04/28 05:12:37;;;;;;;11.98;3.55;;;8.20;99.90;;;;;;4974384;28;20129;-78
2022/04/28 05:15:03;;;;;;;14.07;3.75;;;8.10;99.90;;;;;;5002804;28;20049;-77
2022/04/28 05:17:29;;;;;;;17.05;4.15;;;8.10;99.90;;;;;;4978382;28;20125;-81
2022/04/28 05:19:58;;;;;;;16.17;3.70;;;8.10;99.90;;;;;;4972707;28;20153;-82
2022/04/28 05:22:24;;;;;;;11.32;3.05;;;8.10;99.90;;;;;;4971131;28;20069;-78
2022/04/28 05:24:50;;;;;;;15.38;2.90;;;8.10;99.90;;;;;;4978959;28;20473;-80
2022/04/28 05:27:16;;;;;;;17.67;3.20;;;8.40;99.90;;;;;;4979366;28;20081;-78
2022/04/28 05:29:43;;;;;;;14.68;3.22;;;8.40;99.90;;;;;;4976069;28;20425;-78
2022/04/28 05:32:09;;;;;;;13.35;2.88;;;8.30;99.90;;;;;;4980661;28;20481;-78
2022/04/28 05:34:34;;;;;;;6.50;2.75;;;8.20;99.90;;;;;;4988459;28;20132;-79
2022/04/28 05:37:00;;;;;;;15.50;3.65;;;8.20;99.90;;;;;;4996436;28;20469;-80
2022/04/28 05:39:28;;;;;;;13.27;2.92;;;8.50;99.90;;;;;;4994608;28;20053;-79
2022/04/28 05:41:55;;;;;;;14.93;3.00;;;8.10;99.90;;;;;;4988934;28;20063;-79
2022/04/28 05:47:06;;;;;;;10.38;2.90;;;8.00;99.90;;;;;;5002414;28;20076;-79
2022/04/28 05:49:32;;;;;;;12.65;3.10;;;7.90;99.90;;;;;;4982171;28;20156;-78
2022/04/28 05:51:58;;;;;;;18.20;3.40;;;7.90;99.90;;;;;;4986179;28;20154;-78
2022/04/28 05:54:24;;;;;;;9.80;2.30;;;7.90;99.90;;;;;;4968241;28;20042;-79
2022/04/28 05:56:50;;;;;;;8.63;2.70;;;7.90;99.90;;;;;;4973204;28;20116;-80
2022/04/28 05:59:16;;;;;;;7.38;3.05;;;8.10;99.90;;;;;;4943882;28;20081;-78
2022/04/28 06:01:43;;;;;;;11.25;3.30;;;8.00;99.90;;;;;;4959728;28;20136;-79
2022/04/28 06:04:09;;;;;;;9.23;3.00;;;8.10;99.90;;;;;;4946801;28;20156;-79
2022/04/28 06:06:35;;;;;;;10.88;3.50;;;8.10;99.90;;;;;;4962434;28;20046;-81
2022/04/28 06:09:01;;;;;;;11.98;3.00;;;8.40;99.90;;;;;;4964916;28;20165;-79
2022/04/28 06:11:26;;;;;;;15.65;3.40;;;8.20;99.90;;;;;;4962602;28;20038;-79
2022/04/28 06:13:52;;;;;;;13.70;3.63;;;8.30;99.90;;;;;;4951086;28;20062;-80
2022/04/28 06:16:17;;;;;;;14.57;3.08;;;8.30;99.90;;;;;;4962155;28;20574;-79
2022/04/28 06:18:43;;;;;;;12.45;3.80;;;8.30;99.90;;;;;;4961719;28;20492;-80
2022/04/28 06:21:09;;;;;;;10.30;3.05;;;8.30;99.90;;;;;;4948140;28;20513;-79
2022/04/28 06:23:35;;;;;;;13.35;3.00;;;8.40;99.90;;;;;;4964049;28;20100;-79
2022/04/28 06:26:01;;;;;;;16.77;3.55;;;8.50;99.90;;;;;;4953454;28;20062;-80
2022/04/28 06:28:27;;;;;;;12.63;3.38;;;8.60;99.90;;;;;;4973324;28;21121;-80
2022/04/28 06:30:53;;;;;;;14.35;3.00;;;8.90;99.90;;;;;;4952717;28;20402;-80
2022/04/28 06:33:20;;;;;;;8.15;2.20;;;8.70;99.90;;;;;;4955127;28;20497;-79
2022/04/28 06:35:45;;;;;;;13.10;2.75;;;9.10;99.90;;;;;;4958833;28;20055;-79
2022/04/28 06:38:11;;;;;;;10.77;2.55;;;8.80;99.90;;;;;;4963228;28;20069;-79
2022/04/28 06:40:37;;;;;;;11.23;2.50;;;8.90;99.90;;;;;;4952066;28;21485;-79
2022/04/28 06:43:03;;;;;;;10.02;2.30;;;8.90;99.90;;;;;;4968406;28;20141;-82
2022/04/28 06:45:29;;;;;;;14.68;2.35;;;9.00;99.90;;;;;;4968898;28;20038;-80
2022/04/28 06:47:55;;;;;;;8.48;2.33;;;9.10;99.90;;;;;;4948633;28;20050;-79
2022/04/28 06:50:20;;;;;;;10.00;2.20;;;9.20;99.90;;;;;;4950501;28;20076;-79
2022/04/28 06:52:46;;;;;;;9.68;2.50;;;9.30;99.90;;;;;;4966768;28;20417;-79
2022/04/28 06:55:12;;;;;;;10.60;2.35;;;9.30;99.90;;;;;;4953586;28;20363;-80
2022/04/28 06:57:39;;;;;;;15.15;2.17;;;9.40;99.90;;;;;;4983231;28;20134;-78
2022/04/28 07:00:07;;;;;;;14.45;2.20;;;9.60;99.90;;;;;;4961600;28;20055;-78
2022/04/28 07:02:33;;;;;;;11.70;2.25;;;9.60;99.90;;;;;;4967261;28;20058;-77
2022/04/28 07:04:58;;;;;;;10.25;2.20;;;9.70;99.90;;;;;;4968042;28;20050;-77
2022/04/28 07:07:25;;;;;;;14.25;2.60;;;9.70;99.90;;;;;;4950835;28;20034;-82
2022/04/28 07:09:53;;;;;;;10.05;2.28;;;9.60;99.90;;;;;;4951080;28;20125;-83
2022/04/28 07:12:19;;;;;;;16.58;2.00;;;9.80;99.90;;;;;;4968760;28;20169;-81
2022/04/28 07:14:45;;;;;;;10.85;2.17;;;10.00;99.90;;;;;;4954335;28;20081;-78
2022/04/28 07:17:11;;;;;;;11.60;2.33;;;10.80;99.90;;;;;;4966286;28;20050;-77
2022/04/28 07:19:37;;;;;;;11.10;1.88;;;10.90;99.90;;;;;;4954162;28;20522;-79
2022/04/28 07:22:05;;;;;;;14.02;2.40;;;10.80;99.90;;;;;;4965654;28;20081;-78
2022/04/28 07:24:35;;;;;;;11.25;2.20;;;10.30;99.90;;;;;;4964836;28;20129;-76
2022/04/28 07:27:02;;;;;;;10.88;2.22;;;10.10;99.90;;;;;;4962425;28;20046;-76
2022/04/28 07:29:28;;;;;;;14.65;2.17;;;10.10;99.90;;;;;;4964097;28;20038;-76
2022/04/28 07:31:54;;;;;;;11.90;2.10;;;10.10;99.90;;;;;;4968093;28;20051;-77
2022/04/28 07:34:19;;;;;;;10.07;1.90;;;10.10;99.90;;;;;;4963735;28;20569;-77
2022/04/28 07:36:45;;;;;;;12.38;2.13;;;10.10;99.90;;;;;;4969339;28;20057;-75
2022/04/28 07:39:11;;;;;;;9.68;2.00;;;10.00;99.90;;;;;;4965486;28;20054;-77
2022/04/28 07:41:37;;;;;;;9.55;1.80;;;10.00;99.90;;;;;;4964311;28;21848;-74
2022/04/28 07:44:03;;;;;;;12.52;1.73;;;10.10;99.90;;;;;;4951037;28;20141;-76
2022/04/28 07:46:28;;;;;;;9.02;1.60;;;10.60;99.90;;;;;;4963567;28;20057;-76
2022/04/28 07:48:54;;;;;;;14.38;1.77;;;10.30;99.90;;;;;;4954928;28;20523;-76
2022/04/28 07:51:20;;;;;;;10.02;2.03;;;10.10;99.90;;;;;;4968797;28;20065;-80
2022/04/28 07:53:45;;;;;;;5.85;1.20;;;10.00;99.90;;;;;;4964668;28;20046;-78
2022/04/28 07:56:13;;;;;;;10.57;1.65;;;9.80;99.90;;;;;;4968601;28;20089;-77
2022/04/28 07:58:41;;;;;;;13.77;1.52;;;9.90;99.90;;;;;;4987828;28;20137;-77
2022/04/28 08:01:07;;;;;;;9.27;1.80;;;9.90;99.90;;;;;;4972282;28;20053;-79
2022/04/28 08:03:32;;;;;;;9.90;1.88;;;10.10;99.90;;;;;;4984971;28;20097;-78
2022/04/28 08:05:58;;;;;;;11.25;2.03;;;10.20;99.90;;;;;;4985494;28;20049;-78
2022/04/28 08:08:24;;;;;;;10.02;1.80;;;10.20;99.90;;;;;;4981490;28;20602;-79
2022/04/28 08:10:50;;;;;;;10.60;1.70;;;10.30;99.90;;;;;;4968551;28;20327;-79
2022/04/28 08:13:16;;;;;;;12.68;2.10;;;10.30;99.90;;;;;;4986864;28;20042;-79
2022/04/28 08:15:45;;;;;;;12.40;1.90;;;10.80;99.90;;;;;;4954113;28;20096;-79
2022/04/28 08:18:10;;;;;;;12.70;2.08;;;10.70;99.90;;;;;;4985695;28;20513;-78
2022/04/28 08:20:39;;;;;;;11.15;2.13;;;10.80;99.90;;;;;;4986528;28;20047;-77
2022/04/28 08:23:05;;;;;;;13.63;1.77;;;10.80;99.90;;;;;;4982835;28;20088;-77
2022/04/28 08:25:30;;;;;;;12.38;1.80;;;10.70;99.90;;;;;;4986497;28;20189;-77
2022/04/28 08:27:56;;;;;;;12.55;2.17;;;10.50;99.90;;;;;;4967227;28;20101;-79
2022/04/28 08:30:25;;;;;;;9.45;1.67;;;10.70;99.90;;;;;;4982797;28;20050;-78
2022/04/28 08:32:51;;;;;;;10.95;2.03;;;10.70;99.90;;;;;;4972327;28;20061;-78
2022/04/28 08:35:17;;;;;;;14.35;2.05;;;10.90;99.90;;;;;;5001337;28;20046;-78
2022/04/28 08:37:42;;;;;;;8.77;1.95;;;11.00;99.90;;;;;;4967382;28;20062;-78
2022/04/28 08:40:09;;;;;;;14.88;2.90;;;11.10;99.90;;;;;;4976912;28;20454;-78
2022/04/28 08:42:36;;;;;;;8.68;2.40;;;11.10;99.90;;;;;;4964233;28;20137;-78
2022/04/28 08:45:03;;;;;;;16.85;3.10;;;11.10;99.90;;;;;;4977451;28;20109;-78
2022/04/28 08:47:32;;;;;;;13.45;2.50;;;11.30;99.90;;;;;;4979509;28;20149;-78
2022/04/28 08:50:01;;;;;;;9.35;2.60;;;11.40;99.90;;;;;;4975311;28;20057;-78
2022/04/28 08:52:27;;;;;;;13.20;2.63;;;11.60;99.90;;;;;;4963652;28;20042;-78
2022/04/28 08:54:55;;;;;;;14.80;3.10;;;11.70;99.90;;;;;;4982259;28;20096;-78
2022/04/28 08:57:23;;;;;;;17.02;3.83;;;11.50;99.90;;;;;;4965969;28;20166;-78
2022/04/28 08:59:51;;;;;;;13.27;3.20;;;11.60;99.90;;;;;;4946636;28;20062;-78
2022/04/28 09:02:24;;;;;;;12.85;3.00;;;11.70;99.90;;;;;;4962719;28;20205;-78
2022/04/28 09:04:49;;;;;;;17.25;3.40;;;11.50;99.90;;;;;;4956266;28;20043;-77
2022/04/28 09:07:15;;;;;;;14.73;3.10;;;11.40;99.90;;;;;;4957168;28;20467;-78
2022/04/28 09:09:41;;;;;;;38.22;3.60;;;11.30;99.90;;;;;;4965636;28;20038;-79
2022/04/28 09:12:08;;;;;;;14.18;2.97;;;11.50;99.90;;;;;;4958114;28;20043;-77
2022/04/28 09:14:33;;;;;;;10.20;3.05;;;11.20;99.90;;;;;;4966716;28;20038;-75
2022/04/28 09:17:08;;;;;;;15.32;3.30;;;11.40;99.90;;;;;;4969374;28;20114;-79
2022/04/28 09:19:37;;;;;;;13.38;2.95;;;11.30;99.90;;;;;;4977553;28;20066;-79
2022/04/28 09:22:12;;;;;;;14.77;2.92;;;11.50;99.90;;;;;;4952182;28;20361;-79
2022/04/28 09:24:44;;;;;;;17.42;3.22;;;11.40;99.90;;;;;;4938934;28;20062;-79
2022/04/28 09:27:10;;;;;;;16.17;3.25;;;11.30;99.90;;;;;;4980577;28;20077;-79
2022/04/28 09:29:39;;;;;;;14.23;2.90;;;11.70;99.90;;;;;;4970931;28;20050;-79
2022/04/28 09:32:13;;;;;;;15.95;3.05;;;11.90;99.90;;;;;;4954967;28;20071;-77
2022/04/28 09:34:50;;;;;;;13.70;3.33;;;11.60;99.90;;;;;;4949814;28;20149;-84
2022/04/28 09:37:21;;;;;;;23.08;2.72;;;11.80;99.90;;;;;;4961884;28;20038;-82
2022/04/28 09:42:45;;;;;;;12.55;2.58;;;11.70;99.90;;;;;;4984256;28;20046;-83
2022/04/28 09:45:14;;;;;;;15.25;3.03;;;12.00;99.90;;;;;;4963286;28;20054;-78
2022/04/28 09:47:40;;;;;;;14.10;2.70;;;11.70;99.90;;;;;;4946846;28;20046;-77
2022/04/28 09:50:16;;;;;;;18.13;2.67;;;12.00;99.90;;;;;;4969015;28;20133;-77
2022/04/28 09:52:53;;;;;;;16.42;2.90;;;12.00;99.90;;;;;;4977166;28;20058;-78
2022/04/28 09:55:21;;;;;;;13.50;2.95;;;12.00;99.90;;;;;;4947957;28;20054;-77
2022/04/28 09:57:47;;;;;;;14.27;2.53;;;12.00;99.90;;;;;;4953578;28;20070;-77
2022/04/28 10:00:17;;;;;;;11.63;2.90;;;11.90;99.90;;;;;;4990434;28;20113;-77
2022/04/28 10:02:43;;;;;;;15.20;2.78;;;11.70;99.90;;;;;;5006839;28;20494;-77
2022/04/28 10:05:09;;;;;;;9.30;2.22;;;11.70;99.90;;;;;;4974598;28;20129;-77
2022/04/28 10:07:36;;;;;;;19.42;2.78;;;11.80;99.90;;;;;;4989589;28;20038;-77
2022/04/28 10:10:02;;;;;;;16.77;2.80;;;11.70;99.90;;;;;;4982630;28;20049;-78
2022/04/28 10:12:28;;;;;;;13.85;3.13;;;11.70;99.90;;;;;;4965587;28;20417;-77
2022/04/28 10:14:55;;;;;;;10.07;2.63;;;11.80;99.90;;;;;;4991969;28;20054;-78
2022/04/28 10:18:05;;;;;;;13.43;2.83;;;11.80;99.90;;;;;;4986678;28;20145;-77
2022/04/28 10:20:37;;;;;;;15.25;2.97;;;11.50;99.90;;;;;;5002817;28;20049;-76
2022/04/28 10:23:07;;;;;;;10.27;2.63;;;11.60;99.90;;;;;;4980229;28;20049;-81
2022/04/28 10:34:53;;;;;;;15.75;2.80;;;12.20;99.90;;;;;;4992233;28;20516;-77
2022/04/28 10:37:41;;;;;;;9.07;2.33;;;12.30;99.90;;;;;;5005098;28;20074;-77
2022/04/28 10:40:13;;;;;;;12.48;2.53;;;11.90;99.90;;;;;;4988816;28;20042;-79
2022/04/28 10:42:39;;;;;;;14.73;2.20;;;12.20;99.90;;;;;;4987728;28;20070;-78
2022/04/28 10:45:28;;;;;;;13.00;2.40;;;12.10;99.90;;;;;;4969286;28;20046;-84
2022/04/28 10:48:38;;;;;;;11.57;2.40;;;12.10;99.90;;;;;;4987776;28;20058;-81
2022/04/28 10:51:17;;;;;;;11.73;2.47;;;12.20;99.90;;;;;;4983417;28;20441;-81
2022/04/28 10:53:55;;;;;;;12.07;2.38;;;11.80;99.90;;;;;;4993457;28;20055;-81
2022/04/28 10:56:21;;;;;;;12.95;2.55;;;11.70;99.90;;;;;;5001920;28;20075;-80
2022/04/28 10:58:46;;;;;;;10.02;2.25;;;11.60;99.90;;;;;;4969746;28;20093;-80
2022/04/28 11:01:33;;;;;;;15.05;2.53;;;11.60;99.90;;;;;;4978454;28;20329;-81
2022/04/28 11:04:00;;;;;;;6.13;1.92;;;11.50;99.90;;;;;;4967449;28;20050;-80
2022/04/28 11:06:31;;;;;;;9.18;2.40;;;11.50;99.90;;;;;;4991553;28;20445;-80
2022/04/28 11:09:02;;;;;;;16.38;2.20;;;11.60;99.90;;;;;;5002278;28;20085;-80
2022/04/28 11:11:45;;;;;;;10.20;2.40;;;11.50;99.90;;;;;;4976422;28;20565;-80
2022/04/28 11:14:12;;;;;;;15.23;2.85;;;11.60;99.90;;;;;;4967901;28;20492;-80
2022/04/28 11:16:42;;;;;;;11.48;2.50;;;11.80;99.90;;;;;;4999034;28;20117;-80
2022/04/28 11:19:09;;;;;;;8.60;2.10;;;12.10;99.90;;;;;;4984838;28;20486;-81
2022/04/28 11:21:38;;;;;;;14.70;2.58;;;12.00;99.90;;;;;;4999719;28;20066;-80
2022/04/28 11:24:06;;;;;;;14.57;2.30;;;12.10;99.90;;;;;;5007148;28;20531;-82
2022/04/28 11:26:32;;;;;;;16.70;2.13;;;12.30;99.90;;;;;;4968302;28;20121;-80
2022/04/28 11:29:08;;;;;;;17.52;2.70;;;12.30;99.90;;;;;;4971807;28;20077;-80
2022/04/28 11:31:34;;;;;;;15.35;2.75;;;12.00;99.90;;;;;;4973349;28;20388;-80
2022/04/28 11:34:04;;;;;;;17.40;2.47;;;12.00;99.90;;;;;;4976864;28;20166;-81
2022/04/28 11:36:30;;;;;;;14.43;3.55;;;11.90;99.90;;;;;;4973389;28;20112;-81
2022/04/28 11:38:59;;;;;;;13.60;2.70;;;11.80;99.90;;;;;;4981933;28;20046;-79
2022/04/28 11:41:31;;;;;;;12.70;2.30;;;11.80;99.90;;;;;;4964622;28;20783;-81
2022/04/28 11:44:06;;;;;;;10.27;2.20;;;11.90;99.90;;;;;;4976282;28;20153;-81
2022/04/28 11:46:34;;;;;;;11.15;2.20;;;11.80;99.90;;;;;;4968948;28;20188;-79
2022/04/28 11:49:00;;;;;;;11.10;2.17;;;11.90;99.90;;;;;;4965051;28;20050;-82
2022/04/28 11:51:26;;;;;;;11.73;2.22;;;12.20;99.90;;;;;;4984796;28;20044;-84
2022/04/28 11:53:53;;;;;;;10.57;2.20;;;12.20;99.90;;;;;;4988657;28;20049;-80
2022/04/28 11:56:29;;;;;;;18.27;2.50;;;12.20;99.90;;;;;;4978980;28;20069;-80
2022/04/28 11:58:55;;;;;;;13.30;2.20;;;12.00;99.90;;;;;;4994209;28;20227;-80
2022/04/28 12:01:22;;;;;;;10.00;2.30;;;12.00;99.90;;;;;;4958262;28;20042;-79
2022/04/28 12:03:53;;;;;;;10.65;2.20;;;12.10;99.90;;;;;;4992875;28;20062;-77
2022/04/28 12:06:20;;;;;;;11.85;2.65;;;12.00;99.90;;;;;;4975932;28;20068;-80
2022/04/28 12:08:51;;;;;;;13.30;2.60;;;12.50;99.90;;;;;;4974587;28;20053;-86
2022/04/28 12:19:44;;;;;;;;;;;12.50;99.90;;;;;;4984254;28;20065;-80
2022/04/28 12:22:10;;;;;;;10.07;2.10;;;12.50;99.90;;;;;;4983407;28;19956;-80
2022/04/28 12:24:36;;;;;;;13.40;2.15;;;12.30;99.90;;;;;;4962228;28;20514;-80
2022/04/28 12:27:11;;;;;;;10.25;2.08;;;12.40;99.90;;;;;;4984341;28;20065;-80
2022/04/28 12:29:52;;;;;;;;;;;12.50;99.90;;;;;;4984339;28;20157;-80
2022/04/28 12:32:22;;;;;;;17.67;2.75;;;12.30;99.90;;;;;;5011169;28;20000;-81
2022/04/28 12:35:01;;;;;;;18.38;2.33;;;12.60;99.90;;;;;;4967417;28;20136;-81
2022/04/28 12:37:28;;;;;;;10.20;2.15;;;12.70;99.90;;;;;;4961132;28;20086;-81
2022/04/28 12:39:58;;;;;;;10.93;2.30;;;12.70;99.90;;;;;;5003765;28;20073;-81
2022/04/28 12:42:29;;;;;;;11.93;2.28;;;12.60;99.90;;;;;;4986729;28;20037;-80
2022/04/28 12:44:58;;;;;;;14.50;2.40;;;12.80;99.90;;;;;;4977490;28;20279;-81
2022/04/28 12:47:34;;;;;;;9.35;1.70;;;13.00;99.90;;;;;;4973916;28;20125;-81
2022/04/28 12:50:02;;;;;;;10.43;2.53;;;13.30;99.90;;;;;;5003675;28;20381;-81
2022/04/28 12:52:31;;;;;;;10.80;2.00;;;13.30;99.90;;;;;;4976824;28;20152;-82
2022/04/28 12:55:05;;;;;;;15.80;2.35;;;13.20;99.90;;;;;;4982474;28;20051;-81
2022/04/28 12:57:31;;;;;;;11.20;2.40;;;12.90;99.90;;;;;;5004364;28;20156;-81
2022/04/28 13:00:01;;;;;;;10.98;2.00;;;12.50;99.90;;;;;;4985246;28;20599;-80
2022/04/28 13:02:31;;;;;;;9.25;2.10;;;12.50;99.90;;;;;;4997465;28;20046;-80
2022/04/28 13:05:09;;;;;;;14.40;2.22;;;12.30;99.90;;;;;;4965637;28;20413;-81
2022/04/28 13:07:35;;;;;;;12.32;2.28;;;12.40;99.90;;;;;;4996562;28;20342;-81
2022/04/28 13:10:01;;;;;;;11.95;1.90;;;12.50;99.90;;;;;;4991419;28;20464;-80
2022/04/28 13:12:27;;;;;;;8.27;1.98;;;12.50;99.90;;;;;;5002865;28;20080;-80
2022/04/28 13:14:53;;;;;;;11.65;2.05;;;12.60;99.90;;;;;;4977171;28;20236;-81
2022/04/28 13:17:18;;;;;;;10.82;2.00;;;12.70;99.90;;;;;;4984278;28;20069;-80
2022/04/28 13:19:44;;;;;;;10.10;2.35;;;13.40;99.90;;;;;;4992026;28;20484;-81
2022/04/28 13:22:10;;;;;;;9.55;2.13;;;13.90;99.90;;;;;;4976428;28;20193;-79
2022/04/28 13:24:36;;;;;;;11.15;2.03;;;14.20;99.90;;;;;;4992533;28;20414;-80
2022/04/28 13:27:02;;;;;;;15.68;2.60;;;14.00;99.90;;;;;;4997558;28;20049;-78